createdAt,value
2018-02-21T00:00:40.904Z,0
2018-02-21T00:03:10.929Z,0
2018-02-21T00:04:25.723Z,0
2018-02-21T00:05:39.731Z,0
2018-02-21T00:06:53.981Z,0
2018-02-21T00:08:08.228Z,0
2018-02-21T00:09:23.219Z,0
2018-02-21T00:10:37.483Z,0
2018-02-21T00:11:51.725Z,0
2018-02-21T00:13:06.202Z,0
2018-02-21T00:14:20.659Z,0
2018-02-21T00:15:34.984Z,0
2018-02-21T00:16:49.698Z,0
2018-02-21T00:18:03.932Z,0
2018-02-21T00:19:17.715Z,0
2018-02-21T00:20:31.986Z,0
2018-02-21T00:21:46.276Z,0
2018-02-21T00:23:00.559Z,0
2018-02-21T00:24:14.787Z,0
2018-02-21T00:25:28.790Z,0
2018-02-21T00:26:42.791Z,0
2018-02-21T00:27:57.575Z,0
2018-02-21T00:29:11.656Z,0
2018-02-21T00:30:25.677Z,0
2018-02-21T00:31:40.139Z,0
2018-02-21T00:33:09.024Z,0
2018-02-21T00:34:24.154Z,0
2018-02-21T00:35:38.153Z,0
2018-02-21T00:36:52.403Z,0
2018-02-21T00:38:06.925Z,0
2018-02-21T00:39:21.505Z,0
2018-02-21T00:40:35.974Z,0
2018-02-21T00:41:50.679Z,0
2018-02-21T00:43:05.184Z,0
2018-02-21T00:44:19.674Z,0
2018-02-21T00:45:33.931Z,0
2018-02-21T00:46:48.233Z,0
2018-02-21T00:48:02.458Z,0
2018-02-21T00:49:16.452Z,0
2018-02-21T00:50:30.423Z,0
2018-02-21T00:51:44.616Z,0
2018-02-21T00:52:58.898Z,0
2018-02-21T00:54:12.650Z,0
2018-02-21T00:55:26.870Z,0
2018-02-21T00:56:41.336Z,0
2018-02-21T00:57:55.795Z,0
2018-02-21T00:59:10.089Z,0
2018-02-21T01:00:39.483Z,0
2018-02-21T01:01:53.972Z,0
2018-02-21T01:03:08.435Z,0
2018-02-21T01:04:22.951Z,0
2018-02-21T01:05:37.431Z,0
2018-02-21T01:06:51.512Z,0
2018-02-21T01:08:05.728Z,0
2018-02-21T01:09:19.717Z,0
2018-02-21T01:10:34.229Z,0
2018-02-21T01:11:48.191Z,0
2018-02-21T01:13:02.650Z,0
2018-02-21T01:14:16.861Z,0
2018-02-21T01:15:30.624Z,0
2018-02-21T01:16:44.630Z,0
2018-02-21T01:17:58.833Z,0
2018-02-21T01:19:13.328Z,0
2018-02-21T01:20:27.306Z,0
2018-02-21T01:21:41.054Z,0
2018-02-21T01:22:55.103Z,0
2018-02-21T01:24:09.808Z,0
2018-02-21T01:25:24.318Z,0
2018-02-21T01:26:38.817Z,0
2018-02-21T01:27:52.553Z,0
2018-02-21T01:29:06.842Z,0
2018-02-21T01:30:20.605Z,0
2018-02-21T01:31:35.090Z,0
2018-02-21T01:32:48.849Z,0
2018-02-21T01:34:02.864Z,0
2018-02-21T01:35:17.155Z,0
2018-02-21T01:36:30.923Z,0
2018-02-21T01:37:45.142Z,0
2018-02-21T01:38:59.623Z,0
2018-02-21T01:40:13.958Z,0
2018-02-21T01:41:28.484Z,0
2018-02-21T01:42:42.217Z,0
2018-02-21T01:44:11.596Z,0
2018-02-21T01:45:25.840Z,0
2018-02-21T01:46:40.113Z,0
2018-02-21T01:47:54.374Z,0
2018-02-21T01:49:08.889Z,0
2018-02-21T01:50:23.361Z,0
2018-02-21T01:51:37.376Z,0
2018-02-21T01:52:51.399Z,0
2018-02-21T01:54:04.924Z,0
2018-02-21T01:55:18.930Z,0
2018-02-21T01:56:32.675Z,0
2018-02-21T01:57:46.413Z,0
2018-02-21T01:59:00.397Z,0
2018-02-21T02:00:14.639Z,0
2018-02-21T02:01:29.173Z,0
2018-02-21T02:02:42.678Z,0
2018-02-21T02:03:57.136Z,0
2018-02-21T02:05:11.643Z,0
2018-02-21T02:06:25.880Z,0
2018-02-21T02:07:40.370Z,0
2018-02-21T02:08:54.119Z,0
2018-02-21T02:10:08.355Z,0
2018-02-21T02:11:22.927Z,0
2018-02-21T02:12:36.795Z,0
2018-02-21T02:13:50.569Z,0
2018-02-21T02:15:04.103Z,0
2018-02-21T02:16:18.586Z,0
2018-02-21T02:17:32.894Z,0
2018-02-21T02:18:47.128Z,0
2018-02-21T02:20:01.363Z,0
2018-02-21T02:21:15.633Z,0
2018-02-21T02:22:30.091Z,0
2018-02-21T02:23:44.387Z,0
2018-02-21T02:24:58.374Z,0
2018-02-21T02:26:12.382Z,0
2018-02-21T02:27:26.395Z,0
2018-02-21T02:28:40.894Z,0
2018-02-21T02:29:55.172Z,0
2018-02-21T02:31:09.488Z,0
2018-02-21T02:32:23.954Z,0
2018-02-21T02:33:37.468Z,0
2018-02-21T02:34:51.459Z,0
2018-02-21T02:36:05.732Z,0
2018-02-21T02:37:20.233Z,0
2018-02-21T02:38:34.212Z,0
2018-02-21T02:39:48.419Z,0
2018-02-21T02:41:02.659Z,0
2018-02-21T02:42:16.890Z,0
2018-02-21T02:43:31.142Z,0
2018-02-21T02:44:45.612Z,0
2018-02-21T02:46:00.216Z,0
2018-02-21T02:47:29.644Z,0
2018-02-21T02:48:44.280Z,0
2018-02-21T02:49:58.576Z,0
2018-02-21T02:51:12.819Z,0
2018-02-21T02:52:27.059Z,0
2018-02-21T02:53:41.346Z,0
2018-02-21T02:54:55.864Z,0
2018-02-21T02:56:10.088Z,0
2018-02-21T02:57:24.091Z,0
2018-02-21T02:58:38.328Z,0
2018-02-21T02:59:52.420Z,0
2018-02-21T03:01:06.639Z,0
2018-02-21T03:02:20.874Z,0
2018-02-21T03:03:35.353Z,0
2018-02-21T03:04:49.100Z,0
2018-02-21T03:06:03.692Z,0
2018-02-21T03:07:17.426Z,0
2018-02-21T03:08:31.659Z,0
2018-02-21T03:09:45.875Z,0
2018-02-21T03:11:00.372Z,0
2018-02-21T03:12:15.351Z,0
2018-02-21T03:13:29.583Z,0
2018-02-21T03:14:44.060Z,0
2018-02-21T03:15:58.030Z,0
2018-02-21T03:17:11.635Z,0
2018-02-21T03:18:25.805Z,0
2018-02-21T03:19:39.535Z,0
2018-02-21T03:20:53.714Z,0
2018-02-21T03:22:08.186Z,0
2018-02-21T03:23:22.416Z,0
2018-02-21T03:24:36.960Z,0
2018-02-21T03:25:50.482Z,0
2018-02-21T03:27:04.724Z,0
2018-02-21T03:28:18.964Z,0
2018-02-21T03:29:33.445Z,0
2018-02-21T03:30:47.765Z,0
2018-02-21T03:32:01.998Z,0
2018-02-21T03:33:15.991Z,0
2018-02-21T03:34:30.458Z,0
2018-02-21T03:35:44.691Z,0
2018-02-21T03:36:58.975Z,0
2018-02-21T03:38:13.223Z,0
2018-02-21T03:39:27.213Z,0
2018-02-21T03:40:41.458Z,0
2018-02-21T03:41:56.179Z,0
2018-02-21T03:43:09.734Z,0
2018-02-21T03:44:23.730Z,0
2018-02-21T03:45:37.489Z,0
2018-02-21T03:46:52.215Z,0
2018-02-21T03:48:05.946Z,0
2018-02-21T03:49:20.248Z,0
2018-02-21T03:50:34.234Z,0
2018-02-21T03:51:48.106Z,0
2018-02-21T03:53:01.603Z,0
2018-02-21T03:54:15.809Z,0
2018-02-21T03:55:30.338Z,0
2018-02-21T03:56:44.069Z,0
2018-02-21T03:57:58.043Z,0
2018-02-21T03:59:12.083Z,0
2018-02-21T04:00:40.473Z,0
2018-02-21T04:01:54.270Z,0
2018-02-21T04:03:08.106Z,0
2018-02-21T04:04:22.408Z,0
2018-02-21T04:05:36.359Z,0
2018-02-21T04:06:50.307Z,0
2018-02-21T04:08:04.111Z,0
2018-02-21T04:09:18.598Z,0
2018-02-21T04:10:32.546Z,0
2018-02-21T04:11:46.999Z,0
2018-02-21T04:13:01.511Z,0
2018-02-21T04:14:15.768Z,0
2018-02-21T04:15:29.504Z,0
2018-02-21T04:16:43.505Z,0
2018-02-21T04:17:57.524Z,0
2018-02-21T04:19:11.767Z,0
2018-02-21T04:20:25.858Z,0
2018-02-21T04:21:39.903Z,0
2018-02-21T04:22:54.157Z,0
2018-02-21T04:24:08.773Z,0
2018-02-21T04:25:23.539Z,0
2018-02-21T04:26:38.105Z,0
2018-02-21T04:27:52.362Z,0
2018-02-21T04:29:06.616Z,0
2018-02-21T04:30:20.597Z,0
2018-02-21T04:31:35.079Z,0
2018-02-21T04:32:49.545Z,0
2018-02-21T04:34:03.627Z,0
2018-02-21T04:35:17.912Z,0
2018-02-21T04:36:32.659Z,0
2018-02-21T04:37:46.970Z,0
2018-02-21T04:39:01.089Z,0
2018-02-21T04:40:15.338Z,0
2018-02-21T04:41:29.111Z,0
2018-02-21T04:42:42.597Z,0
2018-02-21T04:43:56.858Z,0
2018-02-21T04:45:11.422Z,0
2018-02-21T04:46:25.452Z,0
2018-02-21T04:47:39.967Z,0
2018-02-21T04:48:53.723Z,0
2018-02-21T04:50:07.480Z,0
2018-02-21T04:51:22.299Z,0
2018-02-21T04:52:36.757Z,0
2018-02-21T04:53:51.271Z,0
2018-02-21T04:55:06.000Z,0
2018-02-21T04:56:20.531Z,0
2018-02-21T04:57:34.492Z,0
2018-02-21T04:58:48.503Z,0
2018-02-21T05:00:02.745Z,0
2018-02-21T05:01:16.972Z,0
2018-02-21T05:03:44.818Z,0
2018-02-21T05:04:59.557Z,0
2018-02-21T05:06:13.592Z,0
2018-02-21T05:07:28.045Z,0
2018-02-21T05:08:42.555Z,0
2018-02-21T05:09:56.619Z,0
2018-02-21T05:11:10.616Z,0
2018-02-21T05:12:24.564Z,0
2018-02-21T05:13:39.373Z,0
2018-02-21T05:14:53.227Z,0
2018-02-21T05:16:07.589Z,0
2018-02-21T05:17:22.335Z,0
2018-02-21T05:18:36.819Z,0
2018-02-21T05:19:51.083Z,0
2018-02-21T05:21:05.615Z,0
2018-02-21T05:22:20.386Z,0
2018-02-21T05:23:34.619Z,0
2018-02-21T05:24:48.638Z,0
2018-02-21T05:26:01.897Z,0
2018-02-21T05:27:15.402Z,0
2018-02-21T05:28:29.932Z,0
2018-02-21T05:29:44.424Z,0
2018-02-21T05:30:58.502Z,0
2018-02-21T05:32:12.486Z,0
2018-02-21T05:33:26.494Z,0
2018-02-21T05:34:40.524Z,0
2018-02-21T05:35:54.764Z,0
2018-02-21T05:37:08.784Z,0
2018-02-21T05:38:22.796Z,0
2018-02-21T05:39:36.332Z,0
2018-02-21T05:40:50.410Z,0
2018-02-21T05:42:04.661Z,0
2018-02-21T05:43:18.644Z,0
2018-02-21T05:44:32.438Z,0
2018-02-21T05:45:46.711Z,0
2018-02-21T05:47:01.010Z,0
2018-02-21T05:48:15.534Z,0
2018-02-21T05:49:29.988Z,0
2018-02-21T05:50:43.725Z,0
2018-02-21T05:51:57.953Z,0
2018-02-21T05:53:12.595Z,0
2018-02-21T05:54:26.860Z,0
2018-02-21T05:55:41.066Z,0
2018-02-21T05:56:55.308Z,0
2018-02-21T05:58:09.781Z,0
2018-02-21T05:59:24.107Z,0
2018-02-21T06:00:38.143Z,0
2018-02-21T06:02:06.556Z,0
2018-02-21T06:03:20.442Z,0
2018-02-21T06:04:34.260Z,0
2018-02-21T06:05:48.016Z,0
2018-02-21T06:07:02.226Z,0
2018-02-21T06:08:16.490Z,0
2018-02-21T06:09:30.476Z,0
2018-02-21T06:10:45.049Z,0
2018-02-21T06:11:59.304Z,0
2018-02-21T06:13:13.329Z,0
2018-02-21T06:14:27.079Z,0
2018-02-21T06:15:41.084Z,0
2018-02-21T06:17:10.013Z,0
2018-02-21T06:18:24.584Z,0
2018-02-21T06:19:39.098Z,0
2018-02-21T06:20:53.363Z,0
2018-02-21T06:22:07.380Z,0
2018-02-21T06:23:21.719Z,0
2018-02-21T06:24:35.255Z,0
2018-02-21T06:25:49.824Z,5
2018-02-21T06:27:04.152Z,5
2018-02-21T06:28:18.440Z,5
2018-02-21T06:29:32.765Z,5
2018-02-21T06:30:46.813Z,5
2018-02-21T06:32:00.834Z,5
2018-02-21T06:33:15.085Z,5
2018-02-21T06:34:29.541Z,10
2018-02-21T06:35:44.180Z,10
2018-02-21T06:36:58.634Z,10
2018-02-21T06:38:12.414Z,10
2018-02-21T06:39:26.416Z,10
2018-02-21T06:40:40.403Z,15
2018-02-21T06:41:54.712Z,15
2018-02-21T06:43:08.799Z,15
2018-02-21T06:44:23.069Z,15
2018-02-21T06:45:36.842Z,15
2018-02-21T06:46:51.086Z,20
2018-02-21T06:48:05.098Z,20
2018-02-21T06:49:19.614Z,20
2018-02-21T06:50:33.874Z,20
2018-02-21T06:51:47.879Z,20
2018-02-21T06:53:01.924Z,25
2018-02-21T06:54:15.949Z,25
2018-02-21T06:55:29.954Z,25
2018-02-21T06:56:43.553Z,25
2018-02-21T06:57:58.051Z,25
2018-02-21T06:59:11.828Z,25
2018-02-21T07:00:26.088Z,30
2018-02-21T07:01:40.084Z,30
2018-02-21T07:02:54.087Z,30
2018-02-21T07:04:08.845Z,30
2018-02-21T07:05:23.588Z,35
2018-02-21T07:06:37.348Z,35
2018-02-21T07:07:51.620Z,35
2018-02-21T07:09:06.195Z,35
2018-02-21T07:10:20.504Z,35
2018-02-21T07:11:35.232Z,40
2018-02-21T07:12:48.736Z,40
2018-02-21T07:14:03.252Z,40
2018-02-21T07:15:16.810Z,40
2018-02-21T07:16:30.837Z,45
2018-02-21T07:17:44.425Z,45
2018-02-21T07:18:58.168Z,45
2018-02-21T07:20:11.704Z,45
2018-02-21T07:21:25.462Z,45
2018-02-21T07:22:38.968Z,50
2018-02-21T07:23:52.983Z,50
2018-02-21T07:25:07.241Z,50
2018-02-21T07:26:20.966Z,50
2018-02-21T07:27:35.225Z,50
2018-02-21T07:28:49.040Z,50
2018-02-21T07:30:03.125Z,55
2018-02-21T07:31:17.601Z,55
2018-02-21T07:32:32.107Z,55
2018-02-21T07:33:46.375Z,55
2018-02-21T07:35:00.407Z,55
2018-02-21T07:36:14.439Z,55
2018-02-21T07:37:28.432Z,60
2018-02-21T07:38:42.447Z,60
2018-02-21T07:39:56.939Z,60
2018-02-21T07:41:26.094Z,60
2018-02-21T07:42:40.491Z,60
2018-02-21T07:43:54.249Z,65
2018-02-21T07:45:08.310Z,65
2018-02-21T07:46:22.616Z,65
2018-02-21T07:47:37.388Z,65
2018-02-21T07:48:51.157Z,65
2018-02-21T07:50:05.431Z,65
2018-02-21T07:51:19.567Z,65
2018-02-21T07:52:34.199Z,70
2018-02-21T07:53:48.682Z,70
2018-02-21T07:55:02.971Z,70
2018-02-21T07:56:16.494Z,70
2018-02-21T07:59:00.440Z,70
2018-02-21T08:00:14.203Z,70
2018-02-21T08:01:27.856Z,70
2018-02-21T08:02:42.193Z,75
2018-02-21T08:03:56.724Z,75
2018-02-21T08:05:10.887Z,75
2018-02-21T08:06:25.442Z,75
2018-02-21T08:07:38.986Z,75
2018-02-21T08:08:53.039Z,75
2018-02-21T08:10:07.577Z,75
2018-02-21T08:11:21.850Z,80
2018-02-21T08:12:36.349Z,80
2018-02-21T08:13:50.592Z,80
2018-02-21T08:15:04.992Z,80
2018-02-21T08:16:18.505Z,80
2018-02-21T08:17:32.778Z,80
2018-02-21T08:18:46.795Z,85
2018-02-21T08:20:01.049Z,85
2018-02-21T08:21:14.833Z,85
2018-02-21T08:22:28.842Z,85
2018-02-21T08:23:43.360Z,85
2018-02-21T08:24:57.395Z,85
2018-02-21T08:26:11.900Z,85
2018-02-21T08:27:26.172Z,85
2018-02-21T08:28:39.941Z,85
2018-02-21T08:29:53.721Z,85
2018-02-21T08:31:08.000Z,85
2018-02-21T08:32:22.027Z,85
2018-02-21T08:33:35.770Z,85
2018-02-21T08:34:50.367Z,90
2018-02-21T08:36:04.396Z,90
2018-02-21T08:37:19.100Z,90
2018-02-21T08:38:33.362Z,90
2018-02-21T08:39:47.128Z,90
2018-02-21T08:41:01.358Z,90
2018-02-21T08:42:14.908Z,90
2018-02-21T08:43:29.434Z,90
2018-02-21T08:44:43.694Z,90
2018-02-21T08:45:58.180Z,90
2018-02-21T08:47:11.928Z,90
2018-02-21T08:48:26.262Z,95
2018-02-21T08:49:40.788Z,95
2018-02-21T08:50:55.570Z,95
2018-02-21T08:52:09.393Z,95
2018-02-21T08:53:23.861Z,95
2018-02-21T08:54:37.857Z,95
2018-02-21T08:55:52.123Z,95
2018-02-21T08:57:06.120Z,95
2018-02-21T08:58:20.570Z,95
2018-02-21T08:59:34.322Z,95
2018-02-21T09:00:48.072Z,100
2018-02-21T09:02:02.335Z,100
2018-02-21T09:03:16.860Z,100
2018-02-21T09:04:30.600Z,100
2018-02-21T09:05:45.077Z,100
2018-02-21T09:06:58.842Z,100
2018-02-21T09:08:13.048Z,100
2018-02-21T09:09:27.052Z,100
2018-02-21T09:10:41.284Z,100
2018-02-21T09:11:55.768Z,100
2018-02-21T09:13:10.336Z,100
2018-02-21T09:14:24.828Z,100
2018-02-21T09:15:39.091Z,100
2018-02-21T09:16:53.392Z,100
2018-02-21T09:18:06.889Z,100
2018-02-21T09:19:20.648Z,100
2018-02-21T09:20:35.168Z,100
2018-02-21T09:21:49.706Z,100
2018-02-21T09:23:03.432Z,100
2018-02-21T09:24:17.442Z,100
2018-02-21T09:25:31.727Z,95
2018-02-21T09:26:45.753Z,100
2018-02-21T09:28:00.540Z,100
2018-02-21T09:29:14.791Z,100
2018-02-21T09:30:29.436Z,100
2018-02-21T09:31:43.669Z,100
2018-02-21T09:32:57.714Z,100
2018-02-21T09:34:12.059Z,100
2018-02-21T09:35:26.296Z,105
2018-02-21T09:36:41.024Z,105
2018-02-21T09:37:55.513Z,105
2018-02-21T09:39:09.543Z,110
2018-02-21T09:40:23.054Z,110
2018-02-21T09:41:37.041Z,110
2018-02-21T09:42:51.076Z,110
2018-02-21T09:44:05.583Z,115
2018-02-21T09:45:19.112Z,115
2018-02-21T09:46:33.821Z,115
2018-02-21T09:47:48.321Z,115
2018-02-21T09:49:02.323Z,120
2018-02-21T09:50:16.104Z,120
2018-02-21T09:51:30.362Z,120
2018-02-21T09:52:44.862Z,115
2018-02-21T09:53:59.363Z,115
2018-02-21T09:55:13.729Z,115
2018-02-21T09:56:28.209Z,115
2018-02-21T09:57:42.460Z,115
2018-02-21T09:58:56.732Z,115
2018-02-21T10:00:10.728Z,110
2018-02-21T10:01:25.484Z,110
2018-02-21T10:02:39.554Z,110
2018-02-21T10:03:54.040Z,105
2018-02-21T10:05:08.295Z,105
2018-02-21T10:06:22.361Z,105
2018-02-21T10:07:36.342Z,100
2018-02-21T10:08:50.383Z,100
2018-02-21T10:10:04.609Z,100
2018-02-21T10:11:19.364Z,95
2018-02-21T10:12:34.117Z,100
2018-02-21T10:13:48.612Z,100
2018-02-21T10:15:02.357Z,95
2018-02-21T10:16:16.581Z,95
2018-02-21T10:17:30.815Z,100
2018-02-21T10:18:45.074Z,100
2018-02-21T10:19:58.829Z,100
2018-02-21T10:21:12.601Z,100
2018-02-21T10:22:26.814Z,100
2018-02-21T10:23:40.839Z,100
2018-02-21T10:24:55.095Z,100
2018-02-21T10:26:09.361Z,100
2018-02-21T10:27:23.863Z,95
2018-02-21T10:28:37.988Z,100
2018-02-21T10:29:51.800Z,100
2018-02-21T10:31:06.284Z,100
2018-02-21T10:32:20.791Z,100
2018-02-21T10:33:34.531Z,100
2018-02-21T10:34:48.991Z,100
2018-02-21T10:36:03.291Z,100
2018-02-21T10:37:16.311Z,105
2018-02-21T10:38:30.127Z,105
2018-02-21T10:39:44.612Z,110
2018-02-21T10:40:58.615Z,105
2018-02-21T10:42:13.361Z,105
2018-02-21T10:43:27.185Z,105
2018-02-21T10:44:41.199Z,105
2018-02-21T10:45:54.691Z,105
2018-02-21T10:47:09.001Z,105
2018-02-21T10:48:22.532Z,105
2018-02-21T10:49:36.827Z,105
2018-02-21T10:50:51.348Z,105
2018-02-21T10:52:05.403Z,105
2018-02-21T10:53:19.169Z,105
2018-02-21T10:54:33.423Z,105
2018-02-21T10:55:47.209Z,105
2018-02-21T10:57:00.748Z,105
2018-02-21T10:58:15.223Z,105
2018-02-21T10:59:29.753Z,105
2018-02-21T11:00:44.065Z,100
2018-02-21T11:01:57.947Z,100
2018-02-21T11:03:11.972Z,100
2018-02-21T11:04:25.751Z,100
2018-02-21T11:05:39.753Z,105
2018-02-21T11:06:54.038Z,100
2018-02-21T11:08:08.312Z,100
2018-02-21T11:09:23.033Z,100
2018-02-21T11:10:36.826Z,100
2018-02-21T11:11:51.082Z,100
2018-02-21T11:13:04.620Z,100
2018-02-21T11:14:18.905Z,100
2018-02-21T11:15:32.944Z,100
2018-02-21T11:16:46.991Z,100
2018-02-21T11:18:01.048Z,100
2018-02-21T11:19:15.530Z,100
2018-02-21T11:20:29.800Z,100
2018-02-21T11:21:43.792Z,100
2018-02-21T11:22:58.039Z,100
2018-02-21T11:24:12.076Z,100
2018-02-21T11:25:26.337Z,100
2018-02-21T11:26:40.331Z,100
2018-02-21T11:27:54.579Z,100
2018-02-21T11:29:08.581Z,95
2018-02-21T11:30:23.144Z,95
2018-02-21T11:31:37.185Z,100
2018-02-21T11:32:51.481Z,95
2018-02-21T11:34:05.973Z,95
2018-02-21T11:35:20.578Z,95
2018-02-21T11:36:34.815Z,95
2018-02-21T11:37:48.301Z,95
2018-02-21T11:39:03.059Z,90
2018-02-21T11:40:17.347Z,90
2018-02-21T11:41:31.084Z,90
2018-02-21T11:42:45.332Z,90
2018-02-21T11:43:59.356Z,90
2018-02-21T11:45:12.958Z,90
2018-02-21T11:46:26.229Z,90
2018-02-21T11:47:39.985Z,90
2018-02-21T11:48:54.487Z,90
2018-02-21T11:50:08.753Z,90
2018-02-21T11:51:23.058Z,90
2018-02-21T11:52:36.830Z,90
2018-02-21T11:53:51.105Z,90
2018-02-21T11:55:05.124Z,90
2018-02-21T11:56:19.400Z,90
2018-02-21T11:57:33.408Z,90
2018-02-21T11:58:47.194Z,90
2018-02-21T12:00:01.468Z,90
2018-02-21T12:01:15.011Z,90
2018-02-21T12:02:28.844Z,90
2018-02-21T12:03:43.085Z,90
2018-02-21T12:04:58.030Z,90
2018-02-21T12:06:12.272Z,90
2018-02-21T12:07:26.325Z,90
2018-02-21T12:08:40.948Z,90
2018-02-21T12:09:55.228Z,90
2018-02-21T12:11:09.503Z,90
2018-02-21T12:12:24.052Z,90
2018-02-21T12:13:38.083Z,90
2018-02-21T12:14:52.570Z,90
2018-02-21T12:16:06.186Z,90
2018-02-21T12:17:20.234Z,90
2018-02-21T12:18:34.253Z,90
2018-02-21T12:19:47.805Z,90
2018-02-21T12:21:01.794Z,90
2018-02-21T12:22:16.099Z,90
2018-02-21T12:23:30.349Z,90
2018-02-21T12:24:44.619Z,90
2018-02-21T12:25:58.437Z,90
2018-02-21T12:27:12.192Z,90
2018-02-21T12:28:25.967Z,90
2018-02-21T12:29:39.597Z,90
2018-02-21T12:30:54.108Z,90
2018-02-21T12:32:08.137Z,90
2018-02-21T12:33:22.157Z,90
2018-02-21T12:34:36.418Z,90
2018-02-21T12:35:50.208Z,90
2018-02-21T12:37:04.019Z,90
2018-02-21T12:38:18.537Z,90
2018-02-21T12:39:32.589Z,90
2018-02-21T12:40:47.230Z,90
2018-02-21T12:42:01.597Z,90
2018-02-21T12:43:16.149Z,90
2018-02-21T12:44:30.396Z,90
2018-02-21T12:45:44.241Z,90
2018-02-21T12:46:58.564Z,90
2018-02-21T12:48:13.059Z,90
2018-02-21T12:49:27.345Z,90
2018-02-21T12:50:41.627Z,90
2018-02-21T12:51:56.370Z,90
2018-02-21T12:53:10.704Z,90
2018-02-21T12:54:24.988Z,90
2018-02-21T12:55:39.453Z,90
2018-02-21T12:56:53.698Z,90
2018-02-21T12:58:07.724Z,90
2018-02-21T12:59:22.350Z,90
2018-02-21T13:00:36.352Z,90
2018-02-21T13:01:50.854Z,90
2018-02-21T13:03:05.608Z,90
2018-02-21T13:04:19.691Z,90
2018-02-21T13:05:33.510Z,90
2018-02-21T13:06:47.523Z,90
2018-02-21T13:08:01.581Z,90
2018-02-21T13:09:16.345Z,90
2018-02-21T13:10:29.633Z,90
2018-02-21T13:11:44.127Z,90
2018-02-21T13:12:57.934Z,90
2018-02-21T13:14:12.081Z,90
2018-02-21T13:15:26.239Z,90
2018-02-21T13:16:40.324Z,90
2018-02-21T13:17:54.343Z,90
2018-02-21T13:19:08.889Z,90
2018-02-21T13:20:22.903Z,90
2018-02-21T13:21:37.644Z,90
2018-02-21T13:22:51.439Z,90
2018-02-21T13:24:05.478Z,90
2018-02-21T13:25:19.783Z,90
2018-02-21T13:26:34.316Z,90
2018-02-21T13:27:48.330Z,90
2018-02-21T13:29:02.859Z,90
2018-02-21T13:30:17.141Z,90
2018-02-21T13:31:31.345Z,90
2018-02-21T13:32:45.884Z,90
2018-02-21T13:33:59.453Z,90
2018-02-21T13:35:13.952Z,90
2018-02-21T13:36:28.446Z,90
2018-02-21T13:37:42.252Z,90
2018-02-21T13:38:56.621Z,90
2018-02-21T13:40:10.680Z,90
2018-02-21T13:41:25.427Z,90
2018-02-21T13:42:39.723Z,90
2018-02-21T13:43:53.988Z,90
2018-02-21T13:45:07.999Z,90
2018-02-21T13:46:21.800Z,90
2018-02-21T13:47:36.095Z,90
2018-02-21T13:48:50.222Z,90
2018-02-21T13:50:04.510Z,85
2018-02-21T13:51:18.774Z,85
2018-02-21T13:52:33.585Z,85
2018-02-21T13:53:48.105Z,85
2018-02-21T13:55:02.103Z,85
2018-02-21T13:56:16.614Z,85
2018-02-21T13:57:30.892Z,85
2018-02-21T13:58:44.956Z,85
2018-02-21T13:59:58.232Z,85
2018-02-21T14:01:12.225Z,85
2018-02-21T14:02:26.501Z,85
2018-02-21T14:03:40.733Z,85
2018-02-21T14:04:55.004Z,85
2018-02-21T14:06:09.029Z,85
2018-02-21T14:07:23.305Z,85
2018-02-21T14:08:37.555Z,85
2018-02-21T14:09:51.558Z,85
2018-02-21T14:11:05.782Z,85
2018-02-21T14:12:19.805Z,85
2018-02-21T14:13:33.799Z,85
2018-02-21T14:14:47.829Z,85
2018-02-21T14:16:01.636Z,85
2018-02-21T14:17:16.157Z,85
2018-02-21T14:18:30.686Z,85
2018-02-21T14:19:44.501Z,85
2018-02-21T14:20:58.500Z,85
2018-02-21T14:22:13.124Z,85
2018-02-21T14:23:42.279Z,85
2018-02-21T14:24:56.529Z,85
2018-02-21T14:26:11.316Z,85
2018-02-21T14:27:25.198Z,80
2018-02-21T14:28:39.742Z,80
2018-02-21T14:29:53.755Z,80
2018-02-21T14:31:08.040Z,80
2018-02-21T14:32:22.533Z,80
2018-02-21T14:33:36.801Z,80
2018-02-21T14:34:51.372Z,80
2018-02-21T14:36:05.656Z,80
2018-02-21T14:37:19.229Z,80
2018-02-21T14:38:33.733Z,80
2018-02-21T14:39:47.758Z,80
2018-02-21T14:41:17.126Z,80
2018-02-21T14:42:31.729Z,80
2018-02-21T14:43:45.986Z,80
2018-02-21T14:45:00.226Z,80
2018-02-21T14:46:14.254Z,75
2018-02-21T14:47:28.275Z,75
2018-02-21T14:48:41.802Z,75
2018-02-21T14:49:55.818Z,75
2018-02-21T14:51:10.100Z,75
2018-02-21T14:52:24.348Z,75
2018-02-21T14:53:38.360Z,75
2018-02-21T14:54:53.002Z,75
2018-02-21T14:56:07.285Z,70
2018-02-21T14:57:22.046Z,70
2018-02-21T14:58:36.088Z,65
2018-02-21T14:59:50.618Z,65
2018-02-21T15:01:04.646Z,70
2018-02-21T15:02:18.435Z,65
2018-02-21T15:03:32.452Z,65
2018-02-21T15:04:46.293Z,65
2018-02-21T15:06:00.275Z,65
2018-02-21T15:07:14.539Z,65
2018-02-21T15:08:28.846Z,65
2018-02-21T15:09:42.384Z,65
2018-02-21T15:10:56.381Z,65
2018-02-21T15:12:10.641Z,65
2018-02-21T15:13:25.148Z,65
2018-02-21T15:14:39.190Z,60
2018-02-21T15:15:53.679Z,60
2018-02-21T15:17:07.511Z,60
2018-02-21T15:18:21.781Z,65
2018-02-21T15:19:36.061Z,65
2018-02-21T15:20:50.608Z,65
2018-02-21T15:22:04.894Z,65
2018-02-21T15:23:18.483Z,65
2018-02-21T15:24:32.302Z,65
2018-02-21T15:25:46.603Z,65
2018-02-21T15:27:01.162Z,60
2018-02-21T15:28:15.332Z,60
2018-02-21T15:29:29.374Z,60
2018-02-21T15:30:43.906Z,60
2018-02-21T15:31:58.497Z,60
2018-02-21T15:33:13.067Z,60
2018-02-21T15:34:27.572Z,60
2018-02-21T15:35:41.608Z,60
2018-02-21T15:36:56.144Z,55
2018-02-21T15:38:10.399Z,55
2018-02-21T15:39:24.669Z,55
2018-02-21T15:40:38.452Z,55
2018-02-21T15:41:52.929Z,55
2018-02-21T15:43:06.930Z,55
2018-02-21T15:44:21.208Z,55
2018-02-21T15:45:35.722Z,50
2018-02-21T15:46:49.731Z,50
2018-02-21T15:48:03.754Z,50
2018-02-21T15:49:17.990Z,50
2018-02-21T15:50:32.018Z,45
2018-02-21T15:51:46.072Z,45
2018-02-21T15:53:00.829Z,45
2018-02-21T15:54:15.097Z,45
2018-02-21T15:55:29.218Z,40
2018-02-21T15:56:42.737Z,40
2018-02-21T15:57:57.246Z,40
2018-02-21T15:59:11.307Z,40
2018-02-21T16:00:25.659Z,40
2018-02-21T16:01:39.817Z,40
2018-02-21T16:02:54.073Z,40
2018-02-21T16:04:07.615Z,40
2018-02-21T16:05:22.096Z,40
2018-02-21T16:06:36.154Z,35
2018-02-21T16:07:50.269Z,35
2018-02-21T16:09:04.069Z,35
2018-02-21T16:10:18.621Z,35
2018-02-21T16:11:32.881Z,30
2018-02-21T16:12:46.885Z,30
2018-02-21T16:14:01.580Z,30
2018-02-21T16:15:16.152Z,25
2018-02-21T16:16:30.681Z,25
2018-02-21T16:17:44.721Z,25
2018-02-21T16:18:58.982Z,20
2018-02-21T16:20:13.029Z,20
2018-02-21T16:21:27.288Z,20
2018-02-21T16:22:41.634Z,20
2018-02-21T16:23:55.655Z,20
2018-02-21T16:25:09.483Z,20
2018-02-21T16:26:23.778Z,15
2018-02-21T16:27:38.137Z,15
2018-02-21T16:28:52.182Z,15
2018-02-21T16:30:05.507Z,15
2018-02-21T16:31:19.531Z,15
2018-02-21T16:32:33.625Z,15
2018-02-21T16:33:47.419Z,10
2018-02-21T16:35:01.615Z,10
2018-02-21T16:36:15.957Z,10
2018-02-21T16:37:30.243Z,10
2018-02-21T16:38:44.343Z,10
2018-02-21T16:39:58.396Z,10
2018-02-21T16:41:12.937Z,10
2018-02-21T16:42:27.476Z,10
2018-02-21T16:43:41.533Z,5
2018-02-21T16:44:55.823Z,5
2018-02-21T16:46:10.354Z,5
2018-02-21T16:47:24.877Z,5
2018-02-21T16:48:39.414Z,5
2018-02-21T16:49:53.462Z,5
2018-02-21T16:51:08.334Z,5
2018-02-21T16:52:22.650Z,0
2018-02-21T16:53:37.066Z,0
2018-02-21T16:54:50.855Z,0
2018-02-21T16:56:04.895Z,0
2018-02-21T16:57:18.495Z,0
2018-02-21T16:58:32.513Z,0
2018-02-21T16:59:46.824Z,0
2018-02-21T17:01:01.147Z,0
2018-02-21T17:02:14.937Z,0
2018-02-21T17:03:28.744Z,0
2018-02-21T17:04:42.754Z,0
2018-02-21T17:05:57.276Z,0
2018-02-21T17:07:11.319Z,0
2018-02-21T17:08:25.219Z,0
2018-02-21T17:09:39.278Z,0
2018-02-21T17:10:53.574Z,0
2018-02-21T17:12:07.938Z,0
2018-02-21T17:13:22.274Z,0
2018-02-21T17:14:36.347Z,0
2018-02-21T17:15:50.390Z,0
2018-02-21T17:17:04.413Z,0
2018-02-21T17:18:18.724Z,0
2018-02-21T17:19:32.486Z,0
2018-02-21T17:20:47.054Z,0
2018-02-21T17:22:01.035Z,0
2018-02-21T17:23:15.605Z,0
2018-02-21T17:24:29.860Z,0
2018-02-21T17:25:44.405Z,0
2018-02-21T17:26:58.425Z,0
2018-02-21T17:28:12.214Z,0
2018-02-21T17:29:26.261Z,0
2018-02-21T17:30:39.839Z,0
2018-02-21T17:31:53.893Z,0
2018-02-21T17:33:08.413Z,0
2018-02-21T17:34:22.655Z,0
2018-02-21T17:35:36.650Z,0
2018-02-21T17:36:50.641Z,0
2018-02-21T17:38:05.134Z,0
2018-02-21T17:39:19.650Z,0
2018-02-21T17:40:33.654Z,0
2018-02-21T17:41:47.787Z,0
2018-02-21T17:43:02.529Z,0
2018-02-21T17:44:16.587Z,0
2018-02-21T17:45:30.103Z,0
2018-02-21T17:46:44.132Z,0
2018-02-21T17:47:58.432Z,0
2018-02-21T17:49:12.943Z,0
2018-02-21T17:50:27.215Z,0
2018-02-21T17:51:41.444Z,0
2018-02-21T17:52:55.465Z,0
2018-02-21T17:54:09.983Z,0
2018-02-21T17:55:24.014Z,0